< < Back
Terminal Aerodrome Forecast


Current Version              Previous Versions:   1  2  3  4  5  6  7  8  9  

Terminal Aerodrome Forecast

899
FTUS42 KJAX 222100 AAB
TAFJAX
TAF AMD
KJAX 222134Z 2222/2318 VRB08G20KT 5SM -RA BR VCTS SCT005 OVC025CB
      TEMPO 2222/2223 1/2SM +TSRA FG BKN005 OVC020CB
     FM222300 16007KT P6SM VCSH SCT007 OVC025
     FM230100 12005KT 4SM BR VCSH OVC015
     FM230500 15004KT 2SM BR OVC007
     FM230900 VRB03KT 1/2SM FG OVC002
     FM231500 20008KT 4SM BR OVC008=

Latest METAR

128
SAUS80 KWBC 230000
MTRJAX
METAR KJAX 222356Z 08006KT 10SM FEW003 OVC021 18/18 A2991 RMK AO2 RAE56
TSE19 SLP128 FRQ LTGICCC DSNT N CB DSNT N P0004 60192
T01780178 10211 20178 53004


USA.gov is the U.S. government's official web portal to all federal, state and local government web resources and services.